createdAt,value
2022-10-01T00:00:56.596Z,39.10
2022-10-01T00:05:10.978Z,34.90
2022-10-01T00:09:13.073Z,39.70
2022-10-01T00:13:15.172Z,35.80
2022-10-01T00:17:17.413Z,34.30
2022-10-01T00:21:26.585Z,33.60
2022-10-01T00:25:28.663Z,38.30
2022-10-01T00:29:31.486Z,44.40
2022-10-01T00:33:34.163Z,36.80
2022-10-01T00:37:37.367Z,32.50
2022-10-01T00:41:40.305Z,35.60
2022-10-01T00:45:42.419Z,38.90
2022-10-01T00:49:46.878Z,38.60
2022-10-01T00:53:48.953Z,32.90
2022-10-01T00:57:51.998Z,35.50
2022-10-01T01:01:54.433Z,35.80
2022-10-01T01:05:56.945Z,36.50
2022-10-01T01:10:00.453Z,36.00
2022-10-01T01:14:22.571Z,37.10
2022-10-01T01:18:40.807Z,35.60
2022-10-01T01:22:54.342Z,37.90
2022-10-01T01:27:05.929Z,37.40
2022-10-01T01:31:14.045Z,46.10
2022-10-01T01:35:40.563Z,41.20
2022-10-01T01:39:49.854Z,41.10
2022-10-01T01:43:56.086Z,36.90
2022-10-01T01:48:01.809Z,42.70
2022-10-01T01:52:13.042Z,42.70
2022-10-01T01:56:16.861Z,34.60
2022-10-01T02:00:19.062Z,39.10
2022-10-01T02:04:39.536Z,33.90
2022-10-01T02:08:51.754Z,35.40
2022-10-01T02:13:03.545Z,30.40
2022-10-01T02:17:37.003Z,33.10
2022-10-01T02:22:01.014Z,34.50
2022-10-01T02:26:16.220Z,34.50
2022-10-01T02:30:18.763Z,24.70
2022-10-01T02:34:27.929Z,27.50
2022-10-01T02:38:31.537Z,30.00
2022-10-01T02:42:36.600Z,25.40
2022-10-01T02:47:07.268Z,28.40
2022-10-01T02:51:28.531Z,32.90
2022-10-01T02:55:41.774Z,24.60
2022-10-01T02:59:44.326Z,23.60
2022-10-01T03:03:46.619Z,22.80
2022-10-01T03:07:48.802Z,27.40
2022-10-01T03:11:50.881Z,27.00
2022-10-01T03:15:52.984Z,28.80
2022-10-01T03:19:55.332Z,36.20
2022-10-01T03:23:57.511Z,31.60
2022-10-01T03:27:59.646Z,34.80
2022-10-01T03:32:01.908Z,28.40
2022-10-01T03:36:05.034Z,28.70
2022-10-01T03:40:07.917Z,27.50
2022-10-01T03:44:10.157Z,34.70
2022-10-01T03:48:12.236Z,32.60
2022-10-01T03:52:14.243Z,25.20
2022-10-01T03:56:18.035Z,23.00
2022-10-01T04:00:20.506Z,24.30
2022-10-01T04:04:22.619Z,20.80
2022-10-01T04:08:25.007Z,24.10
2022-10-01T04:12:27.596Z,22.20
2022-10-01T04:16:29.711Z,28.00
2022-10-01T04:20:33.555Z,24.60
2022-10-01T04:24:35.596Z,23.20
2022-10-01T04:28:37.717Z,29.90
2022-10-01T04:32:39.778Z,26.20
2022-10-01T04:36:42.379Z,26.60
2022-10-01T04:40:44.503Z,23.20
2022-10-01T04:44:47.085Z,27.00
2022-10-01T04:48:49.218Z,26.40
2022-10-01T04:52:52.270Z,22.50
2022-10-01T04:56:54.303Z,25.50
2022-10-01T05:01:01.052Z,25.20
2022-10-01T05:05:06.483Z,19.60
2022-10-01T05:09:08.534Z,25.70
2022-10-01T05:13:11.608Z,28.20
2022-10-01T05:17:18.058Z,24.90
2022-10-01T05:21:20.480Z,25.20
2022-10-01T05:25:23.117Z,27.60
2022-10-01T05:29:25.258Z,23.80
2022-10-01T05:33:29.213Z,33.40
2022-10-01T05:37:31.610Z,33.60
2022-10-01T05:41:34.051Z,40.80
2022-10-01T05:45:36.415Z,38.50
2022-10-01T05:49:42.824Z,30.20
2022-10-01T05:53:50.532Z,31.60
2022-10-01T05:57:54.799Z,25.90
2022-10-01T06:01:56.939Z,23.90
2022-10-01T06:05:59.543Z,26.60
2022-10-01T06:10:01.591Z,29.20
2022-10-01T06:14:03.694Z,28.20
2022-10-01T06:18:09.949Z,28.20
2022-10-01T06:22:11.967Z,25.50
2022-10-01T06:26:14.015Z,21.90
2022-10-01T06:30:16.048Z,27.10
2022-10-01T06:34:18.088Z,26.20
2022-10-01T06:38:21.891Z,26.40
2022-10-01T06:42:24.435Z,23.90
2022-10-01T06:46:28.450Z,26.10
2022-10-01T06:50:31.838Z,21.90
2022-10-01T06:54:33.813Z,23.30
2022-10-01T06:58:36.933Z,22.80
2022-10-01T07:02:39.521Z,21.20
2022-10-01T07:06:41.903Z,23.20
2022-10-01T07:10:45.604Z,24.10
2022-10-01T07:14:47.662Z,30.50
2022-10-01T07:18:49.672Z,23.10
2022-10-01T07:22:58.135Z,25.30
2022-10-01T07:27:03.785Z,20.80
2022-10-01T07:31:10.970Z,22.80
2022-10-01T07:35:14.527Z,25.90
2022-10-01T07:39:16.773Z,25.00
2022-10-01T07:43:18.834Z,19.40
2022-10-01T07:47:21.852Z,21.50
2022-10-01T07:51:26.317Z,26.40
2022-10-01T07:55:30.268Z,23.50
2022-10-01T07:59:32.882Z,25.10
2022-10-01T08:03:35.395Z,19.40
2022-10-01T08:07:37.415Z,19.20
2022-10-01T08:11:39.393Z,21.80
2022-10-01T08:15:49.999Z,23.60
2022-10-01T08:19:52.141Z,24.40
2022-10-01T08:23:54.233Z,22.20
2022-10-01T08:27:56.561Z,18.00
2022-10-01T08:31:58.590Z,19.90
2022-10-01T08:36:02.511Z,21.60
2022-10-01T08:40:05.590Z,16.00
2022-10-01T08:44:17.792Z,16.20
2022-10-01T08:48:41.934Z,16.20
2022-10-01T08:52:53.584Z,19.60
2022-10-01T08:57:00.663Z,30.00
2022-10-01T09:01:04.711Z,22.20
2022-10-01T09:05:18.287Z,51.80
2022-10-01T09:09:40.538Z,17.40
2022-10-01T09:14:24.736Z,15.60
2022-10-01T10:41:48.804Z,15.20
2022-10-01T10:46:04.173Z,16.50
2022-10-01T10:50:41.123Z,21.50
2022-10-01T10:54:51.307Z,14.90
2022-10-01T10:59:10.225Z,18.90
2022-10-01T11:03:54.529Z,21.80
2022-10-01T11:08:19.997Z,20.40
2022-10-01T11:12:48.352Z,14.20
2022-10-01T11:17:12.722Z,50.40
2022-10-01T11:21:27.017Z,37.30
2022-10-01T11:26:07.613Z,18.70
2022-10-01T11:30:44.789Z,15.50
2022-10-01T11:35:36.817Z,29.10
2022-10-01T11:44:28.446Z,14.60
2022-10-01T11:48:57.127Z,16.70
2022-10-01T11:53:37.687Z,14.60
2022-10-01T11:57:59.730Z,12.60
2022-10-01T12:02:11.194Z,14.80
2022-10-01T12:06:37.637Z,16.00
2022-10-01T12:10:46.949Z,13.30
2022-10-01T12:14:56.682Z,15.60
2022-10-01T12:19:17.144Z,25.20
2022-10-01T12:23:30.586Z,16.50
2022-10-01T12:27:55.971Z,16.20
2022-10-01T12:32:37.364Z,13.20
2022-10-01T12:37:11.998Z,17.60
2022-10-01T12:41:24.138Z,15.70
2022-10-01T12:45:48.474Z,16.00
2022-10-01T12:50:36.860Z,18.60
2022-10-01T12:54:59.978Z,16.00
2022-10-01T12:59:11.802Z,17.30
2022-10-01T13:03:43.163Z,14.80
2022-10-01T13:08:03.997Z,16.70
2022-10-01T13:12:45.378Z,17.40
2022-10-01T13:17:18.935Z,20.60
2022-10-01T13:21:45.889Z,15.80
2022-10-01T13:26:10.765Z,18.80
2022-10-01T13:30:53.078Z,18.60
2022-10-01T13:34:57.115Z,19.10
2022-10-01T13:38:59.609Z,19.90
2022-10-01T13:43:23.402Z,21.90
2022-10-01T13:47:30.560Z,19.50
2022-10-01T13:51:38.029Z,20.20
2022-10-01T13:55:46.344Z,20.40
2022-10-01T13:59:59.822Z,22.50
2022-10-01T14:04:40.104Z,23.10
2022-10-01T14:09:10.848Z,20.40
2022-10-01T14:13:33.392Z,21.30
2022-10-01T14:17:41.502Z,27.70
2022-10-01T14:22:07.655Z,19.20
2022-10-01T14:26:37.553Z,17.60
2022-10-01T14:35:01.052Z,24.50
2022-10-01T14:39:21.576Z,30.90
2022-10-01T14:43:28.147Z,24.50
2022-10-01T14:47:39.360Z,20.30
2022-10-01T14:51:57.822Z,22.90
2022-10-01T14:56:05.347Z,24.70
2022-10-01T15:00:19.633Z,23.50
2022-10-01T15:04:22.089Z,22.80
2022-10-01T15:08:40.989Z,21.70
2022-10-01T15:12:55.519Z,24.30
2022-10-01T15:17:19.219Z,23.70
2022-10-01T15:21:48.324Z,27.70
2022-10-01T15:25:56.057Z,17.50
2022-10-01T15:30:00.115Z,27.90
2022-10-01T15:34:14.899Z,40.30
2022-10-01T15:38:17.791Z,70.00
2022-10-01T15:42:26.202Z,72.20
2022-10-01T15:50:36.986Z,43.90
2022-10-01T15:54:41.406Z,39.50
2022-10-01T15:58:55.099Z,47.80
2022-10-01T16:02:58.398Z,54.50
2022-10-01T16:07:00.760Z,47.80
2022-10-01T16:11:16.514Z,35.50
2022-10-01T16:15:30.944Z,40.00
2022-10-01T16:19:33.906Z,24.60
2022-10-01T16:23:41.922Z,30.40
2022-10-01T16:27:50.110Z,29.70
2022-10-01T16:31:53.199Z,28.30
2022-10-01T16:36:10.019Z,35.90
2022-10-01T16:40:16.257Z,30.90
2022-10-01T16:44:19.524Z,36.50
2022-10-01T16:48:24.838Z,35.60
2022-10-01T16:52:26.890Z,65.50
2022-10-01T16:56:29.255Z,62.50
2022-10-01T17:00:31.929Z,104.00
2022-10-01T17:04:36.211Z,141.40
2022-10-01T17:08:38.206Z,138.20
2022-10-01T17:12:41.668Z,116.90
2022-10-01T17:16:46.906Z,129.00
2022-10-01T17:20:54.185Z,125.10
2022-10-01T17:24:56.232Z,100.00
2022-10-01T17:28:58.183Z,52.10
2022-10-01T17:33:01.509Z,49.80
2022-10-01T17:37:03.543Z,66.50
2022-10-01T17:41:08.633Z,90.70
2022-10-01T17:45:16.540Z,67.10
2022-10-01T17:49:18.928Z,50.20
2022-10-01T17:53:21.271Z,46.60
2022-10-01T17:57:27.066Z,65.40
2022-10-01T18:01:29.804Z,52.40
2022-10-01T18:05:32.370Z,46.50
2022-10-01T18:09:37.084Z,40.40
2022-10-01T18:13:39.721Z,49.60
2022-10-01T18:17:47.952Z,55.20
2022-10-01T18:21:53.307Z,61.90
2022-10-01T18:25:57.787Z,49.70
2022-10-01T18:30:00.486Z,62.90
2022-10-01T18:34:09.716Z,65.60
2022-10-01T18:38:25.569Z,79.90
2022-10-01T18:42:33.363Z,69.70
2022-10-01T18:46:48.316Z,83.10
2022-10-01T18:50:50.319Z,74.00
2022-10-01T18:54:58.681Z,72.50
2022-10-01T19:04:02.804Z,80.00
2022-10-01T19:08:50.017Z,74.10
2022-10-01T19:13:16.230Z,57.50
2022-10-01T19:17:27.366Z,42.20
2022-10-01T19:22:09.931Z,37.70
2022-10-01T19:26:40.995Z,52.80
2022-10-01T19:35:46.082Z,62.10
2022-10-01T19:40:01.981Z,78.20
2022-10-01T19:44:31.583Z,91.20
2022-10-01T19:49:07.478Z,70.30
2022-10-01T19:54:14.918Z,78.20
2022-10-01T19:58:21.148Z,120.80
2022-10-01T20:02:55.518Z,180.10
2022-10-01T20:07:10.142Z,145.20
2022-10-01T20:11:27.056Z,135.70
2022-10-01T20:15:49.440Z,91.00
2022-10-01T20:26:18.260Z,81.20
2022-10-01T20:36:18.142Z,81.00
2022-10-01T20:46:20.216Z,64.70
2022-10-01T20:56:31.633Z,49.10
2022-10-01T21:00:58.417Z,61.00
2022-10-01T21:05:24.235Z,52.80
2022-10-01T21:09:50.547Z,55.10
2022-10-01T21:14:19.625Z,50.60
2022-10-01T21:18:48.058Z,52.80
2022-10-01T21:23:38.463Z,58.00
2022-10-01T21:27:46.895Z,85.90
2022-10-01T21:32:39.374Z,90.10
2022-10-01T21:36:58.059Z,99.90
2022-10-01T21:48:30.580Z,39.40
2022-10-01T21:53:16.119Z,43.40
2022-10-01T22:03:46.153Z,33.60
2022-10-01T22:09:11.389Z,34.60
2022-10-01T22:23:50.778Z,36.20
2022-10-01T22:28:38.475Z,30.90
2022-10-01T22:32:56.079Z,28.80
2022-10-01T22:37:43.296Z,24.80
2022-10-01T22:42:15.242Z,25.10
2022-10-01T22:47:19.546Z,21.60
2022-10-01T22:51:56.814Z,18.40
2022-10-01T22:56:03.021Z,17.90
2022-10-01T23:00:22.398Z,19.10
2022-10-01T23:04:49.227Z,15.10
2022-10-01T23:09:04.547Z,12.20
2022-10-01T23:13:57.336Z,15.50
2022-10-01T23:18:41.682Z,12.50
2022-10-01T23:22:56.575Z,11.30
2022-10-01T23:28:36.017Z,13.90
2022-10-01T23:33:25.777Z,12.30
2022-10-01T23:37:43.449Z,13.30
2022-10-01T23:42:32.811Z,11.00
2022-10-01T23:46:52.978Z,10.70
2022-10-01T23:51:46.118Z,11.20
2022-10-01T23:56:50.323Z,12.80
